Time;durP1;ratioP1;P1;durP2;ratioP2;P2;SDS_P1;SDS_P2;PMS_P1;PMS_P2;Temp;Humidity;BMP_temperature;BMP_pressure;BME280_temperature;BME280_humidity;BME280_pressure;Samples;Min_cycle;Max_cycle;Signal;HPM_P1;HPM_P2
2021/01/09 00:00:55;;;;;;;32.65;12.13;;;-0.50;99.90;;;;;;5022051;28;20034;-67
2021/01/09 00:03:22;;;;;;;27.98;9.85;;;-0.50;99.90;;;;;;5020318;28;20046;-67
2021/01/09 00:05:52;;;;;;;30.45;10.98;;;-0.50;99.90;;;;;;5022910;28;20571;-67
2021/01/09 00:08:20;;;;;;;32.22;12.10;;;-0.60;99.90;;;;;;5006034;28;20559;-68
2021/01/09 00:10:49;;;;;;;27.10;11.07;;;-0.60;99.90;;;;;;5037814;28;20168;-67
2021/01/09 00:13:17;;;;;;;37.17;12.93;;;-0.60;99.90;;;;;;5028215;28;20040;-67
2021/01/09 00:15:44;;;;;;;33.30;12.30;;;-0.60;99.90;;;;;;5019325;28;20994;-67
2021/01/09 00:18:11;;;;;;;32.30;12.60;;;-0.60;99.90;;;;;;5029249;28;20044;-68
2021/01/09 00:20:37;;;;;;;31.70;12.27;;;-0.60;99.90;;;;;;5029941;28;20133;-67
2021/01/09 00:23:04;;;;;;;29.88;9.82;;;-0.70;99.90;;;;;;5012086;28;20060;-66
2021/01/09 00:25:31;;;;;;;28.27;10.65;;;-0.70;99.90;;;;;;5026543;28;20108;-67
2021/01/09 00:27:57;;;;;;;31.45;11.77;;;-0.70;99.90;;;;;;5029253;28;20050;-67
2021/01/09 00:30:24;;;;;;;37.00;14.52;;;-0.80;99.90;;;;;;5028776;28;20063;-67
2021/01/09 00:32:50;;;;;;;28.02;9.55;;;-0.80;99.90;;;;;;5010305;28;20068;-68
2021/01/09 00:35:17;;;;;;;31.05;11.20;;;-0.90;99.90;;;;;;5027556;28;20048;-67
2021/01/09 00:37:43;;;;;;;30.70;11.00;;;-0.90;99.90;;;;;;5025715;28;20051;-68
2021/01/09 00:40:11;;;;;;;42.53;15.05;;;-0.90;99.90;;;;;;5026609;28;20424;-67
2021/01/09 00:42:39;;;;;;;34.92;11.48;;;-0.90;99.90;;;;;;5005946;28;20119;-67
2021/01/09 00:45:08;;;;;;;27.30;9.48;;;-1.00;99.90;;;;;;5027525;28;20056;-67
2021/01/09 00:47:35;;;;;;;25.98;8.98;;;-1.10;99.90;;;;;;5002868;28;20116;-67
2021/01/09 00:50:02;;;;;;;24.95;10.02;;;-1.10;99.90;;;;;;5009460;28;20057;-67
2021/01/09 00:52:30;;;;;;;28.77;10.35;;;-1.10;99.90;;;;;;5025457;28;20128;-67
2021/01/09 00:54:56;;;;;;;34.70;12.95;;;-1.20;99.90;;;;;;5015589;28;20041;-67
2021/01/09 00:57:23;;;;;;;27.05;10.15;;;-1.20;99.90;;;;;;5024772;28;20042;-66
2021/01/09 00:59:50;;;;;;;36.17;13.77;;;-1.20;99.90;;;;;;5022684;28;20072;-67
2021/01/09 01:02:17;;;;;;;29.95;11.43;;;-1.20;99.90;;;;;;5015555;28;20065;-67
2021/01/09 01:04:44;;;;;;;33.42;12.80;;;-1.20;99.90;;;;;;5020118;28;20539;-67
2021/01/09 01:07:10;;;;;;;36.25;11.55;;;-1.30;99.90;;;;;;5024602;28;20501;-67
2021/01/09 01:09:38;;;;;;;37.15;12.45;;;-1.30;99.90;;;;;;5020217;28;20123;-67
2021/01/09 01:12:05;;;;;;;29.10;10.00;;;-1.40;99.90;;;;;;5024763;28;20069;-68
2021/01/09 01:14:31;;;;;;;26.38;9.40;;;-1.40;99.90;;;;;;5021497;28;20045;-68
2021/01/09 01:16:58;;;;;;;39.80;12.68;;;-1.40;99.90;;;;;;5028042;28;20060;-67
2021/01/09 01:19:24;;;;;;;30.23;10.07;;;-1.40;99.90;;;;;;5022649;28;20072;-67
2021/01/09 01:21:51;;;;;;;34.10;12.60;;;-1.40;99.90;;;;;;5026131;28;20041;-67
2021/01/09 01:24:17;;;;;;;27.55;10.48;;;-1.40;99.90;;;;;;5012214;28;20049;-68
2021/01/09 01:26:44;;;;;;;28.60;9.98;;;-1.40;99.90;;;;;;5024982;28;20865;-68
2021/01/09 01:29:10;;;;;;;26.52;9.15;;;-1.50;99.90;;;;;;5029854;28;20048;-67
2021/01/09 01:31:37;;;;;;;27.85;8.90;;;-1.50;99.90;;;;;;5027914;28;20042;-68
2021/01/09 01:34:03;;;;;;;33.53;11.88;;;-1.50;99.90;;;;;;5028785;28;20100;-67
2021/01/09 01:36:30;;;;;;;25.33;8.60;;;-1.50;99.90;;;;;;5030689;28;20572;-67
2021/01/09 01:38:56;;;;;;;30.15;10.00;;;-1.50;99.90;;;;;;5028088;28;20043;-68
2021/01/09 01:41:23;;;;;;;30.02;11.40;;;-1.60;99.90;;;;;;5027884;28;20560;-67
2021/01/09 01:43:49;;;;;;;25.17;10.02;;;-1.60;99.90;;;;;;5027639;28;20037;-67
2021/01/09 01:46:17;;;;;;;30.90;11.48;;;-1.60;99.90;;;;;;5021303;28;20033;-68
2021/01/09 01:48:45;;;;;;;35.10;11.27;;;-1.70;99.90;;;;;;5025852;28;20041;-67
2021/01/09 01:51:13;;;;;;;31.30;11.30;;;-1.70;99.90;;;;;;5027622;28;20121;-67
2021/01/09 01:53:40;;;;;;;27.58;9.10;;;-1.70;99.90;;;;;;5022959;28;20045;-67
2021/01/09 01:56:07;;;;;;;35.08;12.25;;;-1.70;99.90;;;;;;5023451;28;20046;-67
2021/01/09 01:58:34;;;;;;;32.45;11.15;;;-1.70;99.90;;;;;;5023612;28;20806;-67
2021/01/09 02:01:02;;;;;;;26.38;8.77;;;-1.80;99.90;;;;;;5024654;28;20898;-67
2021/01/09 02:03:29;;;;;;;32.17;10.57;;;-1.80;99.90;;;;;;5028389;28;20045;-67
2021/01/09 02:06:00;;;;;;;18.45;6.72;;;-1.80;99.90;;;;;;5024036;28;20068;-68
2021/01/09 02:08:57;;;;;;;24.70;9.55;;;-1.80;99.90;;;;;;5026659;28;20128;-68
2021/01/09 02:11:32;;;;;;;24.38;8.88;;;-1.80;99.90;;;;;;5028680;28;20164;-68
2021/01/09 02:14:04;;;;;;;24.90;8.88;;;-1.90;99.90;;;;;;5027151;28;20045;-67
2021/01/09 02:16:33;;;;;;;31.13;11.48;;;-1.90;99.90;;;;;;5025844;28;20054;-68
2021/01/09 02:19:02;;;;;;;28.25;10.30;;;-1.80;99.90;;;;;;5046116;28;20457;-68
2021/01/09 02:21:42;;;;;;;27.30;10.23;;;-1.90;99.90;;;;;;5008765;28;20570;-67
2021/01/09 02:24:17;;;;;;;22.80;7.70;;;-1.90;99.90;;;;;;5030513;28;20591;-67
2021/01/09 02:26:48;;;;;;;22.27;7.90;;;-1.90;99.90;;;;;;5027337;28;20038;-67
2021/01/09 02:29:15;;;;;;;20.80;7.25;;;-1.90;99.90;;;;;;5008384;28;20046;-67
2021/01/09 02:31:47;;;;;;;18.50;6.78;;;-1.90;99.90;;;;;;5031992;28;20038;-67
2021/01/09 02:34:16;;;;;;;24.45;7.85;;;-2.00;99.90;;;;;;5027643;28;20041;-67
2021/01/09 02:36:44;;;;;;;26.27;9.15;;;-1.90;99.90;;;;;;5027508;28;20424;-67
2021/01/09 02:39:11;;;;;;;51.28;14.00;;;-2.00;99.90;;;;;;5019694;28;20558;-67
2021/01/09 02:41:39;;;;;;;33.92;11.88;;;-2.00;99.90;;;;;;5022099;28;20041;-68
2021/01/09 02:44:10;;;;;;;40.03;12.75;;;-1.90;99.90;;;;;;5024639;28;20034;-67
2021/01/09 02:46:38;;;;;;;40.37;10.80;;;-1.90;99.90;;;;;;5019916;28;20049;-67
2021/01/09 02:49:07;;;;;;;28.60;9.57;;;-1.90;99.90;;;;;;5027422;28;20061;-67
2021/01/09 02:51:34;;;;;;;35.00;9.93;;;-1.90;99.90;;;;;;5023557;28;20041;-67
2021/01/09 02:54:00;;;;;;;20.48;7.63;;;-2.00;99.90;;;;;;5022584;28;20038;-67
2021/01/09 02:56:27;;;;;;;24.67;8.27;;;-2.00;99.90;;;;;;5022529;28;20374;-67
2021/01/09 02:58:53;;;;;;;23.95;8.18;;;-2.00;99.90;;;;;;5027667;28;20045;-67
2021/01/09 03:01:20;;;;;;;22.33;7.38;;;-2.00;99.90;;;;;;5027911;28;20455;-67
2021/01/09 03:03:47;;;;;;;22.10;6.40;;;-2.00;99.90;;;;;;5027325;28;20041;-67
2021/01/09 03:06:13;;;;;;;32.83;8.75;;;-2.10;99.90;;;;;;5028213;28;20059;-67
2021/01/09 03:08:40;;;;;;;28.67;8.35;;;-2.00;99.90;;;;;;5024069;28;20107;-67
2021/01/09 03:11:06;;;;;;;19.63;7.47;;;-2.00;99.90;;;;;;5019624;28;20056;-67
2021/01/09 03:13:33;;;;;;;23.83;7.22;;;-2.00;99.90;;;;;;5028162;28;20041;-67
2021/01/09 03:15:59;;;;;;;29.70;8.75;;;-2.00;99.90;;;;;;5027567;28;20045;-67
2021/01/09 03:18:27;;;;;;;28.05;8.63;;;-2.10;99.90;;;;;;5024912;28;20567;-67
2021/01/09 03:20:53;;;;;;;25.25;8.45;;;-2.10;99.90;;;;;;5025457;28;20045;-67
2021/01/09 03:23:20;;;;;;;24.33;6.57;;;-2.20;99.90;;;;;;5023645;28;20050;-67
2021/01/09 03:25:46;;;;;;;28.05;9.50;;;-2.20;99.90;;;;;;5025823;28;20076;-67
2021/01/09 03:28:13;;;;;;;21.23;7.13;;;-2.20;99.90;;;;;;5027318;28;20064;-67
2021/01/09 03:30:39;;;;;;;25.55;7.43;;;-2.20;99.90;;;;;;5025180;28;20049;-67
2021/01/09 03:33:06;;;;;;;24.17;6.60;;;-2.30;99.90;;;;;;5019535;28;20034;-67
2021/01/09 03:35:33;;;;;;;23.58;7.88;;;-2.30;99.90;;;;;;5027027;28;20030;-67
2021/01/09 03:37:59;;;;;;;32.20;10.20;;;-2.30;99.90;;;;;;5020428;28;20052;-67
2021/01/09 03:40:26;;;;;;;42.40;13.15;;;-2.30;99.90;;;;;;5021753;28;20045;-67
2021/01/09 03:42:53;;;;;;;24.88;8.98;;;-2.30;99.90;;;;;;5028738;28;20049;-67
2021/01/09 03:45:19;;;;;;;36.10;11.07;;;-2.30;99.90;;;;;;5019089;28;20417;-67
2021/01/09 03:47:46;;;;;;;15.07;5.85;;;-2.30;99.90;;;;;;5024452;28;20737;-67
2021/01/09 03:50:13;;;;;;;21.90;7.32;;;-2.30;99.90;;;;;;5023018;28;20148;-68
2021/01/09 03:52:40;;;;;;;30.48;9.60;;;-2.30;99.90;;;;;;5026758;28;20042;-67
2021/01/09 03:55:07;;;;;;;22.83;7.63;;;-2.30;99.90;;;;;;5025693;28;20492;-67
2021/01/09 03:57:33;;;;;;;26.38;8.35;;;-2.40;99.90;;;;;;5029200;28;20531;-67
2021/01/09 04:00:00;;;;;;;20.52;7.82;;;-2.40;99.90;;;;;;5021836;28;20033;-67
2021/01/09 04:02:27;;;;;;;23.25;7.55;;;-2.40;99.90;;;;;;5027028;28;20037;-67
2021/01/09 04:04:53;;;;;;;28.13;9.60;;;-2.40;99.90;;;;;;5028503;28;20064;-67
2021/01/09 04:07:20;;;;;;;29.42;8.52;;;-2.50;99.90;;;;;;5023657;28;20053;-67
2021/01/09 04:09:46;;;;;;;19.00;8.25;;;-2.50;99.90;;;;;;5020668;28;20041;-67
2021/01/09 04:12:14;;;;;;;18.38;6.95;;;-2.50;99.90;;;;;;5021448;28;20052;-67
2021/01/09 04:14:40;;;;;;;22.38;6.85;;;-2.50;99.90;;;;;;5020341;28;20045;-67
2021/01/09 04:17:07;;;;;;;22.10;7.05;;;-2.50;99.90;;;;;;5028141;28;20092;-67
2021/01/09 04:19:33;;;;;;;19.52;6.50;;;-2.60;99.90;;;;;;5025775;28;20053;-67
2021/01/09 04:22:00;;;;;;;23.05;7.20;;;-2.60;99.90;;;;;;4998218;28;20058;-67
2021/01/09 04:24:27;;;;;;;20.08;6.40;;;-2.60;99.90;;;;;;5023404;28;20054;-67
2021/01/09 04:26:58;;;;;;;25.98;8.45;;;-2.70;99.90;;;;;;5024635;28;20049;-67
2021/01/09 04:29:26;;;;;;;20.90;5.70;;;-2.60;99.90;;;;;;5023038;28;20034;-67
2021/01/09 04:31:54;;;;;;;21.35;5.20;;;-2.60;99.90;;;;;;5023017;28;20099;-67
2021/01/09 04:34:22;;;;;;;20.00;6.90;;;-2.70;99.90;;;;;;5022647;28;20034;-67
2021/01/09 04:36:49;;;;;;;28.30;9.40;;;-2.70;99.90;;;;;;5007908;28;20042;-67
2021/01/09 04:39:16;;;;;;;26.55;8.13;;;-2.70;99.90;;;;;;5020737;28;20045;-67
2021/01/09 04:41:43;;;;;;;26.23;8.68;;;-2.70;99.90;;;;;;5025201;28;20041;-67
2021/01/09 04:44:11;;;;;;;29.23;8.35;;;-2.70;99.90;;;;;;5026005;28;20424;-67
2021/01/09 04:47:00;;;;;;;26.10;8.40;;;-2.70;99.90;;;;;;5024100;28;20041;-67
2021/01/09 04:49:28;;;;;;;27.25;8.10;;;-2.70;99.90;;;;;;5023066;28;20843;-67
2021/01/09 04:52:02;;;;;;;33.75;9.43;;;-2.70;99.90;;;;;;5024973;28;20037;-67
2021/01/09 04:54:32;;;;;;;27.67;7.32;;;-2.70;99.90;;;;;;5028553;28;20036;-68
2021/01/09 04:56:59;;;;;;;27.55;8.10;;;-2.70;99.90;;;;;;5010172;28;20049;-67
2021/01/09 04:59:26;;;;;;;29.23;8.57;;;-2.70;99.90;;;;;;5027360;28;20448;-67
2021/01/09 05:01:53;;;;;;;21.10;7.50;;;-2.70;99.90;;;;;;5032554;28;20044;-68
2021/01/09 05:04:20;;;;;;;29.70;8.98;;;-2.70;99.90;;;;;;5012859;28;20516;-67
2021/01/09 05:06:47;;;;;;;19.73;6.80;;;-2.80;99.90;;;;;;5025677;28;20046;-68
2021/01/09 05:09:16;;;;;;;18.60;6.20;;;-2.80;99.90;;;;;;5010961;28;20050;-67
2021/01/09 05:11:45;;;;;;;30.40;9.25;;;-2.80;99.90;;;;;;5026295;28;20049;-67
2021/01/09 05:14:12;;;;;;;24.52;7.90;;;-2.80;99.90;;;;;;5027568;28;20050;-67
2021/01/09 05:16:39;;;;;;;29.67;9.27;;;-2.80;99.90;;;;;;5026422;28;20045;-67
2021/01/09 05:19:08;;;;;;;29.77;9.02;;;-2.80;99.90;;;;;;5028518;28;20053;-67
2021/01/09 05:21:36;;;;;;;23.83;7.70;;;-2.80;99.90;;;;;;5010802;28;20419;-67
2021/01/09 05:24:05;;;;;;;21.45;7.38;;;-2.90;99.90;;;;;;5029099;28;20547;-67
2021/01/09 05:26:32;;;;;;;28.52;8.07;;;-2.90;99.90;;;;;;5024156;28;20034;-68
2021/01/09 05:29:04;;;;;;;18.55;6.95;;;-2.90;99.90;;;;;;5027072;28;20398;-67
2021/01/09 05:31:35;;;;;;;19.70;7.68;;;-2.90;99.90;;;;;;5024996;28;20049;-67
2021/01/09 05:34:04;;;;;;;26.92;8.95;;;-2.90;99.90;;;;;;5023293;28;20743;-67
2021/01/09 05:36:30;;;;;;;30.02;9.52;;;-2.90;99.90;;;;;;5027905;28;20042;-67
2021/01/09 05:38:57;;;;;;;35.20;11.25;;;-2.80;99.90;;;;;;5031223;28;20043;-67
2021/01/09 05:41:25;;;;;;;22.30;7.63;;;-2.80;99.90;;;;;;5029013;28;20056;-67
2021/01/09 05:43:59;;;;;;;25.80;9.18;;;-2.80;99.90;;;;;;5031363;28;20041;-67
2021/01/09 05:46:37;;;;;;;33.08;11.20;;;-2.80;99.90;;;;;;5027326;28;20049;-67
2021/01/09 05:49:09;;;;;;;34.55;11.30;;;-2.70;99.90;;;;;;5045005;28;20164;-68
2021/01/09 05:51:40;;;;;;;32.95;10.75;;;-2.70;99.90;;;;;;5029946;28;20047;-68
2021/01/09 05:54:08;;;;;;;38.95;12.75;;;-2.60;99.90;;;;;;5030660;28;20045;-67
2021/01/09 05:56:39;;;;;;;28.45;8.88;;;-2.60;99.90;;;;;;5029056;28;20503;-67
2021/01/09 05:59:06;;;;;;;37.72;11.27;;;-2.60;99.90;;;;;;5028929;28;20132;-67
2021/01/09 06:01:35;;;;;;;39.70;12.25;;;-2.60;99.90;;;;;;5021534;28;20046;-67
2021/01/09 06:04:05;;;;;;;36.00;12.07;;;-2.60;99.90;;;;;;5028501;28;20060;-67
2021/01/09 06:06:32;;;;;;;31.80;11.98;;;-2.50;99.90;;;;;;5029761;28;20041;-67
2021/01/09 06:09:04;;;;;;;36.90;11.95;;;-2.50;99.90;;;;;;5029803;28;20528;-67
2021/01/09 06:11:36;;;;;;;42.80;11.85;;;-2.50;99.90;;;;;;5030101;28;20057;-67
2021/01/09 06:14:05;;;;;;;43.80;13.35;;;-2.40;99.90;;;;;;5028288;28;20037;-67
2021/01/09 06:16:35;;;;;;;29.88;11.57;;;-2.40;99.90;;;;;;5020980;28;20041;-68
2021/01/09 06:19:02;;;;;;;52.83;17.30;;;-2.30;99.90;;;;;;5026862;28;20631;-67
2021/01/09 06:21:31;;;;;;;51.58;14.27;;;-2.30;99.90;;;;;;5025652;28;20045;-67
2021/01/09 06:24:00;;;;;;;30.50;11.07;;;-2.20;99.90;;;;;;5008261;28;20132;-67
2021/01/09 06:26:28;;;;;;;42.05;12.77;;;-2.10;99.90;;;;;;5023117;28;20050;-67
2021/01/09 06:29:29;;;;;;;44.97;14.77;;;-2.00;99.90;;;;;;5024811;28;20448;-68
2021/01/09 06:32:03;;;;;;;41.00;11.27;;;-2.00;99.90;;;;;;5021408;28;20057;-67
2021/01/09 06:34:32;;;;;;;40.70;11.95;;;-2.00;99.90;;;;;;5027805;28;20497;-68
2021/01/09 06:37:01;;;;;;;44.00;15.65;;;-1.90;99.90;;;;;;5010729;28;20492;-68
2021/01/09 06:39:32;;;;;;;40.75;14.30;;;-1.90;99.90;;;;;;5007376;28;20033;-67
2021/01/09 06:42:02;;;;;;;44.13;15.77;;;-1.80;99.90;;;;;;5027295;28;20111;-67
2021/01/09 06:44:30;;;;;;;38.78;12.85;;;-1.80;99.90;;;;;;5024550;28;20058;-67
2021/01/09 06:46:57;;;;;;;45.13;15.18;;;-1.70;99.90;;;;;;5009344;28;20050;-67
2021/01/09 06:49:28;;;;;;;50.05;17.33;;;-1.70;99.90;;;;;;5026578;28;20452;-67
2021/01/09 06:52:06;;;;;;;52.72;16.08;;;-1.70;99.90;;;;;;5023376;28;20401;-68
2021/01/09 06:54:38;;;;;;;61.08;17.20;;;-1.70;99.90;;;;;;5026584;28;20812;-67
2021/01/09 06:57:05;;;;;;;55.25;16.88;;;-1.60;99.90;;;;;;5003406;28;20048;-67
2021/01/09 06:59:42;;;;;;;78.30;22.83;;;-1.60;99.90;;;;;;5024664;28;20045;-67
2021/01/09 07:02:38;;;;;;;67.63;22.05;;;-1.50;99.90;;;;;;5017830;28;20057;-67
2021/01/09 07:05:08;;;;;;;46.42;15.30;;;-1.40;99.90;;;;;;5016077;28;20055;-66
2021/01/09 07:07:39;;;;;;;44.55;13.43;;;-1.30;99.90;;;;;;5027543;28;20488;-66
2021/01/09 07:10:14;;;;;;;41.03;13.02;;;-1.20;99.90;;;;;;5011765;28;20045;-66
2021/01/09 07:13:06;;;;;;;39.40;12.25;;;-1.20;99.90;;;;;;5030587;28;20042;-65
2021/01/09 07:15:35;;;;;;;34.00;10.77;;;-1.10;99.90;;;;;;5025319;28;20519;-66
2021/01/09 07:18:07;;;;;;;36.40;10.98;;;-1.10;99.90;;;;;;5028511;28;20440;-66
2021/01/09 07:21:01;;;;;;;21.60;6.88;;;-1.00;99.90;;;;;;5031014;28;20053;-66
2021/01/09 07:23:28;;;;;;;49.72;15.75;;;-1.10;99.90;;;;;;5023332;28;20050;-66
2021/01/09 07:25:56;;;;;;;21.17;7.30;;;-1.10;99.90;;;;;;5020094;28;20089;-65
2021/01/09 07:28:24;;;;;;;30.92;8.73;;;-1.10;99.90;;;;;;5028570;28;20049;-66
2021/01/09 07:31:05;;;;;;;24.27;8.77;;;-1.20;99.90;;;;;;5023295;28;20566;-66
2021/01/09 07:33:33;;;;;;;32.75;10.10;;;-1.10;99.90;;;;;;5031725;28;20047;-66
2021/01/09 07:36:01;;;;;;;32.70;9.07;;;-1.10;99.90;;;;;;5016199;28;20397;-66
2021/01/09 07:38:28;;;;;;;30.98;11.02;;;-1.00;99.90;;;;;;5041915;28;20802;-65
2021/01/09 07:40:57;;;;;;;40.97;13.10;;;-1.00;99.90;;;;;;5029931;28;20057;-66
2021/01/09 07:43:42;;;;;;;35.67;11.10;;;-0.90;99.90;;;;;;5031468;28;20044;-65
2021/01/09 07:46:30;;;;;;;35.15;10.35;;;-0.80;99.90;;;;;;5026333;28;20401;-65
2021/01/09 07:48:59;;;;;;;28.92;9.90;;;-0.60;99.90;;;;;;5023782;28;20080;-66
2021/01/09 07:51:52;;;;;;;38.00;10.52;;;-0.60;99.90;;;;;;5035742;28;20713;-65
2021/01/09 07:54:40;;;;;;;30.40;9.63;;;-0.50;99.90;;;;;;5027853;28;20412;-66
2021/01/09 07:57:18;;;;;;;36.85;10.80;;;-0.30;99.90;;;;;;5017941;28;20099;-66
2021/01/09 07:59:56;;;;;;;34.47;11.27;;;-0.30;99.90;;;;;;5028353;28;20132;-67
2021/01/09 08:02:30;;;;;;;38.25;11.40;;;-0.20;99.90;;;;;;5026892;28;20053;-66
2021/01/09 08:05:21;;;;;;;35.40;9.95;;;-0.20;99.90;;;;;;5023225;28;20535;-67
2021/01/09 08:07:51;;;;;;;38.17;11.15;;;0.00;99.90;;;;;;5026491;28;20049;-65
2021/01/09 08:10:29;;;;;;;37.88;11.85;;;0.10;99.90;;;;;;5027107;28;20140;-65
2021/01/09 08:13:06;;;;;;;37.13;10.85;;;0.10;99.90;;;;;;5018192;28;20038;-66
2021/01/09 08:15:34;;;;;;;30.80;9.25;;;0.30;99.90;;;;;;5033317;28;20033;-65
2021/01/09 08:18:06;;;;;;;38.47;13.32;;;0.30;99.90;;;;;;5028079;28;20042;-65
2021/01/09 08:20:34;;;;;;;38.40;11.80;;;0.40;99.90;;;;;;5024595;28;20386;-65
2021/01/09 08:23:05;;;;;;;41.85;11.73;;;0.60;99.90;;;;;;5024844;28;20033;-65
2021/01/09 08:25:34;;;;;;;33.00;9.90;;;0.60;99.90;;;;;;5024581;28;20442;-65
2021/01/09 08:28:02;;;;;;;36.63;11.80;;;0.70;99.90;;;;;;5025713;28;20511;-65
2021/01/09 08:30:33;;;;;;;41.90;11.82;;;0.70;99.90;;;;;;5027611;28;20058;-65
2021/01/09 08:33:09;;;;;;;37.50;12.38;;;0.70;99.90;;;;;;5026482;28;20038;-65
2021/01/09 08:35:48;;;;;;;43.55;10.45;;;0.80;99.90;;;;;;5031583;28;20053;-66
2021/01/09 08:38:15;;;;;;;40.78;11.20;;;0.80;99.90;;;;;;5013204;28;20052;-66
2021/01/09 08:40:44;;;;;;;37.00;9.95;;;0.80;99.90;;;;;;5020644;28;20049;-66
2021/01/09 08:43:12;;;;;;;32.78;9.57;;;0.70;99.90;;;;;;5025784;28;20136;-66
2021/01/09 08:45:54;;;;;;;36.47;11.18;;;0.70;99.90;;;;;;5030623;28;20060;-64
2021/01/09 08:48:26;;;;;;;27.65;8.30;;;0.70;99.90;;;;;;5028191;28;20111;-65
2021/01/09 08:51:11;;;;;;;34.83;9.52;;;0.80;99.90;;;;;;5030992;28;20058;-65
2021/01/09 08:53:55;;;;;;;32.55;8.93;;;0.70;99.90;;;;;;5022712;28;20496;-66
2021/01/09 08:56:30;;;;;;;48.40;13.85;;;0.60;99.90;;;;;;5017141;28;20128;-65
2021/01/09 08:59:10;;;;;;;37.90;11.80;;;0.40;99.90;;;;;;5022846;28;20046;-65
2021/01/09 09:01:47;;;;;;;49.47;14.10;;;0.40;99.90;;;;;;5026319;28;20045;-65
2021/01/09 09:04:20;;;;;;;25.15;8.23;;;0.50;99.90;;;;;;5027464;28;20045;-65
2021/01/09 09:06:53;;;;;;;35.53;10.27;;;0.50;99.90;;;;;;5018176;28;20045;-65
2021/01/09 09:09:23;;;;;;;29.10;8.88;;;0.50;99.90;;;;;;5014950;28;20045;-64
2021/01/09 09:11:52;;;;;;;37.33;12.50;;;0.50;99.90;;;;;;5019950;28;20064;-65
2021/01/09 09:14:19;;;;;;;24.70;8.05;;;0.60;99.90;;;;;;5018429;28;20037;-66
2021/01/09 09:16:55;;;;;;;33.72;9.30;;;0.60;99.90;;;;;;5017668;28;20465;-65
2021/01/09 09:19:23;;;;;;;22.10;6.35;;;0.60;99.90;;;;;;5016384;28;20439;-64
2021/01/09 09:21:59;;;;;;;23.80;6.80;;;0.60;99.90;;;;;;5025509;28;20400;-65
2021/01/09 09:24:42;;;;;;;36.08;8.90;;;0.60;99.90;;;;;;5007776;28;20546;-65
2021/01/09 09:27:31;;;;;;;24.60;8.40;;;0.60;99.90;;;;;;4997170;28;20501;-62
2021/01/09 09:30:09;;;;;;;24.25;6.88;;;0.70;99.90;;;;;;5014046;28;20050;-65
2021/01/09 09:32:37;;;;;;;22.95;7.68;;;0.70;99.90;;;;;;5014473;28;20053;-62
2021/01/09 09:35:24;;;;;;;21.70;6.15;;;0.80;99.90;;;;;;5014712;28;20053;-62
2021/01/09 09:37:52;;;;;;;23.98;8.63;;;1.00;99.90;;;;;;5015091;28;20186;-64
2021/01/09 09:40:22;;;;;;;30.10;8.48;;;1.20;99.90;;;;;;5015013;28;20046;-64
2021/01/09 09:42:49;;;;;;;26.30;7.10;;;1.30;99.90;;;;;;5012682;28;20048;-64
2021/01/09 09:45:18;;;;;;;25.30;8.60;;;1.20;99.90;;;;;;5018876;28;20057;-64
2021/01/09 09:47:49;;;;;;;29.92;8.60;;;1.30;99.90;;;;;;5013248;28;20128;-65
2021/01/09 09:50:21;;;;;;;18.00;6.35;;;1.30;99.90;;;;;;5011883;28;20396;-65
2021/01/09 09:53:02;;;;;;;23.73;6.93;;;1.20;99.90;;;;;;5012124;28;20049;-65
2021/01/09 09:55:28;;;;;;;22.83;6.68;;;1.20;99.90;;;;;;5028203;28;20163;-63
2021/01/09 09:58:09;;;;;;;22.60;7.47;;;1.20;99.90;;;;;;5011171;28;20056;-64
2021/01/09 10:00:44;;;;;;;24.20;7.97;;;1.30;99.90;;;;;;5013230;28;20041;-65
2021/01/09 10:03:11;;;;;;;34.58;8.90;;;1.40;99.90;;;;;;5017868;28;20071;-65
2021/01/09 10:05:38;;;;;;;31.67;8.57;;;1.50;99.90;;;;;;5012958;28;20072;-65
2021/01/09 10:08:10;;;;;;;39.25;10.48;;;1.60;99.90;;;;;;5013017;28;20045;-65
2021/01/09 10:10:37;;;;;;;31.17;10.38;;;1.70;99.90;;;;;;5014697;28;20058;-66
2021/01/09 10:13:03;;;;;;;32.63;10.50;;;1.70;99.90;;;;;;5016771;28;20707;-65
2021/01/09 10:15:30;;;;;;;28.55;9.15;;;1.70;99.90;;;;;;5015697;28;20053;-65
2021/01/09 10:17:59;;;;;;;38.22;10.73;;;1.80;99.90;;;;;;5010330;28;20041;-65
2021/01/09 10:20:29;;;;;;;33.83;10.30;;;1.80;99.90;;;;;;5012052;28;20054;-65
2021/01/09 10:22:58;;;;;;;39.55;12.57;;;1.80;99.90;;;;;;5011325;28;20074;-66
2021/01/09 10:25:25;;;;;;;47.40;14.48;;;1.70;99.90;;;;;;5015079;28;20052;-66
2021/01/09 10:27:52;;;;;;;37.03;11.13;;;1.80;99.90;;;;;;5013415;28;20089;-66
2021/01/09 10:30:19;;;;;;;32.70;9.35;;;1.80;99.90;;;;;;5003138;28;20045;-65
2021/01/09 10:32:46;;;;;;;33.58;8.63;;;1.90;99.90;;;;;;5012346;28;20038;-66
2021/01/09 10:35:13;;;;;;;32.40;9.60;;;2.00;99.90;;;;;;5015212;28;20041;-66
2021/01/09 10:37:39;;;;;;;29.05;8.23;;;2.00;99.90;;;;;;5017536;28;20037;-66
2021/01/09 10:40:06;;;;;;;36.95;10.07;;;2.20;99.90;;;;;;5015896;28;20049;-66
2021/01/09 10:42:33;;;;;;;37.42;11.43;;;2.30;99.90;;;;;;5014382;28;20036;-64
2021/01/09 10:44:59;;;;;;;31.33;9.55;;;2.50;99.90;;;;;;5016648;28;20048;-64
2021/01/09 10:47:26;;;;;;;32.60;9.80;;;2.70;99.90;;;;;;5013568;28;20046;-65
2021/01/09 10:49:55;;;;;;;35.40;10.50;;;2.60;99.90;;;;;;5011772;28;20510;-66
2021/01/09 10:52:22;;;;;;;30.92;9.88;;;2.50;99.90;;;;;;5016844;28;20939;-66
2021/01/09 10:54:49;;;;;;;34.83;10.18;;;2.30;99.90;;;;;;5009932;28;20539;-66
2021/01/09 10:57:15;;;;;;;28.85;10.48;;;2.30;99.90;;;;;;5017032;28;20046;-64
2021/01/09 10:59:42;;;;;;;32.45;9.07;;;2.30;99.90;;;;;;4999991;28;20050;-65
2021/01/09 11:02:11;;;;;;;25.65;8.45;;;2.30;99.90;;;;;;5016172;28;20053;-64
2021/01/09 11:04:42;;;;;;;33.67;8.45;;;2.40;99.90;;;;;;5013836;28;20092;-64
2021/01/09 11:07:08;;;;;;;24.58;6.68;;;2.40;99.90;;;;;;5012956;28;20109;-66
2021/01/09 11:09:35;;;;;;;28.88;7.72;;;2.40;99.90;;;;;;5020874;28;20063;-66
2021/01/09 11:12:02;;;;;;;22.63;8.73;;;2.40;99.90;;;;;;5025384;28;20884;-65
2021/01/09 11:14:29;;;;;;;27.35;8.00;;;2.50;99.90;;;;;;5025636;28;20033;-64
2021/01/09 11:16:57;;;;;;;26.08;8.82;;;2.70;99.90;;;;;;5018683;28;20034;-64
2021/01/09 11:19:24;;;;;;;18.00;6.50;;;2.70;99.90;;;;;;5016792;28;20072;-64
2021/01/09 11:21:50;;;;;;;28.42;7.82;;;2.60;99.90;;;;;;5012474;28;20034;-64
2021/01/09 11:24:17;;;;;;;26.42;7.90;;;2.50;99.90;;;;;;5014863;28;20049;-64
2021/01/09 11:26:43;;;;;;;31.30;7.97;;;2.50;99.90;;;;;;5012840;28;20405;-64
2021/01/09 11:29:10;;;;;;;24.45;7.28;;;2.50;99.90;;;;;;5016037;28;20033;-64
2021/01/09 11:31:36;;;;;;;26.75;8.52;;;2.50;99.90;;;;;;5014926;28;20061;-65
2021/01/09 11:34:03;;;;;;;23.42;7.43;;;2.60;99.90;;;;;;5010894;28;20049;-66
2021/01/09 11:36:30;;;;;;;27.08;8.43;;;2.60;99.90;;;;;;5014347;28;20056;-64
2021/01/09 11:38:56;;;;;;;25.52;7.65;;;2.60;99.90;;;;;;5012574;28;20467;-65
2021/01/09 11:41:22;;;;;;;25.65;8.57;;;2.50;99.90;;;;;;5019835;28;20042;-66
2021/01/09 11:43:49;;;;;;;24.55;7.03;;;2.60;99.90;;;;;;5001875;28;20096;-66
2021/01/09 11:46:16;;;;;;;25.88;7.80;;;2.60;99.90;;;;;;5018342;28;20473;-65
2021/01/09 11:48:43;;;;;;;32.45;9.82;;;2.60;99.90;;;;;;5003799;28;20435;-67
2021/01/09 11:51:10;;;;;;;27.35;8.48;;;2.60;99.90;;;;;;5019158;28;20053;-66
2021/01/09 11:53:37;;;;;;;21.77;6.82;;;2.50;99.90;;;;;;5015157;28;20056;-66
2021/01/09 11:56:05;;;;;;;28.27;9.52;;;2.50;99.90;;;;;;5008129;28;20053;-66
2021/01/09 11:58:32;;;;;;;31.65;9.10;;;2.50;99.90;;;;;;5016766;28;20046;-65
2021/01/09 12:01:00;;;;;;;28.88;8.63;;;2.70;99.90;;;;;;5023109;28;20045;-65
2021/01/09 12:03:26;;;;;;;32.58;9.15;;;2.80;99.90;;;;;;5023378;28;20103;-66
2021/01/09 12:05:53;;;;;;;33.75;8.32;;;2.80;99.90;;;;;;5015948;28;20061;-65
2021/01/09 12:08:19;;;;;;;37.55;12.00;;;2.70;99.90;;;;;;5007277;28;20059;-66
2021/01/09 12:10:46;;;;;;;24.38;7.72;;;2.70;99.90;;;;;;5018335;28;20192;-66
2021/01/09 12:13:12;;;;;;;26.45;8.60;;;2.70;99.90;;;;;;5025169;28;20040;-64
2021/01/09 12:15:39;;;;;;;27.88;7.60;;;2.70;99.90;;;;;;5012837;28;20075;-66
2021/01/09 12:18:06;;;;;;;29.48;9.13;;;2.90;99.90;;;;;;5017273;28;20051;-65
2021/01/09 12:20:35;;;;;;;23.20;7.57;;;2.90;99.90;;;;;;5026811;28;20061;-65
2021/01/09 12:23:02;;;;;;;24.35;6.75;;;2.90;99.90;;;;;;5023390;28;20047;-65
2021/01/09 12:25:29;;;;;;;23.00;7.45;;;3.10;99.90;;;;;;5019685;28;20056;-65
2021/01/09 12:27:55;;;;;;;22.90;7.53;;;3.20;99.90;;;;;;5021999;28;20315;-66
2021/01/09 12:30:23;;;;;;;26.38;9.75;;;3.30;99.90;;;;;;5019906;28;20049;-68
2021/01/09 12:32:49;;;;;;;29.20;9.27;;;3.40;99.90;;;;;;5021380;28;20034;-68
2021/01/09 12:35:16;;;;;;;28.45;8.57;;;3.40;99.90;;;;;;5034418;28;20038;-67
2021/01/09 12:37:42;;;;;;;26.58;8.82;;;3.50;99.90;;;;;;5018569;28;20054;-66
2021/01/09 12:40:09;;;;;;;23.73;8.13;;;3.50;99.90;;;;;;5016621;28;20081;-66
2021/01/09 12:42:56;;;;;;;29.02;8.73;;;3.30;99.90;;;;;;5011129;28;20041;-66
2021/01/09 12:45:22;;;;;;;21.27;8.00;;;3.40;99.90;;;;;;5022846;28;20068;-66
2021/01/09 12:47:49;;;;;;;23.55;7.15;;;3.20;99.90;;;;;;5016835;28;20444;-67